createdAt,value
2023-02-14T00:01:12.086Z,70.99
2023-02-14T00:03:42.336Z,70.63
2023-02-14T00:06:13.842Z,70.75
2023-02-14T00:08:46.081Z,70.58
2023-02-14T00:11:18.948Z,70.05
2023-02-14T00:14:05.849Z,70.67
2023-02-14T00:16:33.074Z,71.01
2023-02-14T00:19:06.040Z,71.34
2023-02-14T00:21:37.741Z,71.64
2023-02-14T00:24:13.618Z,72.28
2023-02-14T00:26:40.762Z,72.34
2023-02-14T00:29:10.974Z,72.47
2023-02-14T00:31:38.838Z,72.28
2023-02-14T00:34:06.506Z,72.19
2023-02-14T00:36:33.672Z,72.94
2023-02-14T00:39:05.752Z,72.68
2023-02-14T00:41:32.392Z,73.16
2023-02-14T00:44:02.184Z,73.63
2023-02-14T00:46:29.156Z,73.63
2023-02-14T00:48:56.437Z,74.18
2023-02-14T00:51:24.306Z,74.68
2023-02-14T00:53:51.839Z,73.65
2023-02-14T00:56:20.046Z,73.63
2023-02-14T00:58:47.574Z,73.66
2023-02-14T01:01:18.816Z,73.84
2023-02-14T01:03:45.669Z,73.51
2023-02-14T01:06:12.516Z,73.78
2023-02-14T01:08:39.365Z,73.77
2023-02-14T01:11:15.525Z,73.64
2023-02-14T01:13:43.428Z,74.05
2023-02-14T01:16:16.573Z,73.62
2023-02-14T01:18:44.455Z,74.13
2023-02-14T01:21:11.145Z,74.50
2023-02-14T01:23:37.951Z,75.02
2023-02-14T01:26:06.641Z,75.03
2023-02-14T01:28:33.900Z,74.19
2023-02-14T01:31:16.925Z,73.96
2023-02-14T01:33:45.234Z,74.01
2023-02-14T01:36:25.459Z,74.39
2023-02-14T01:38:54.546Z,74.46
2023-02-14T01:41:24.117Z,74.36
2023-02-14T01:44:01.595Z,74.93
2023-02-14T01:46:34.139Z,75.11
2023-02-14T01:49:09.808Z,75.21
2023-02-14T01:51:41.214Z,74.55
2023-02-14T01:54:09.712Z,74.56
2023-02-14T01:56:49.629Z,73.87
2023-02-14T01:59:21.072Z,74.09
2023-02-14T02:01:49.886Z,73.23
2023-02-14T02:04:22.811Z,73.26
2023-02-14T02:06:57.233Z,72.91
2023-02-14T02:09:39.301Z,72.94
2023-02-14T02:12:06.140Z,73.00
2023-02-14T02:14:34.005Z,73.19
2023-02-14T02:17:12.889Z,73.91
2023-02-14T02:20:13.565Z,74.52
2023-02-14T02:23:19.041Z,74.89
2023-02-14T02:26:04.164Z,74.64
2023-02-14T02:29:00.282Z,75.22
2023-02-14T02:31:55.784Z,74.93
2023-02-14T02:34:59.692Z,74.98
2023-02-14T02:37:50.688Z,75.18
2023-02-14T02:40:36.269Z,74.83
2023-02-14T02:43:24.419Z,75.05
2023-02-14T02:46:25.237Z,75.02
2023-02-14T02:49:01.009Z,74.53
2023-02-14T02:51:54.119Z,74.48
2023-02-14T02:54:52.437Z,74.85
2023-02-14T02:57:26.995Z,75.30
2023-02-14T02:59:56.423Z,75.46
2023-02-14T03:02:30.589Z,75.44
2023-02-14T03:05:05.523Z,76.21
2023-02-14T03:07:39.143Z,75.79
2023-02-14T03:10:23.692Z,75.56
2023-02-14T03:13:32.586Z,75.31
2023-02-14T03:16:47.246Z,75.96
2023-02-14T03:20:08.335Z,74.95
2023-02-14T03:22:54.584Z,74.35
2023-02-14T03:25:40.851Z,74.70
2023-02-14T03:28:28.774Z,76.04
2023-02-14T03:31:02.497Z,76.67
2023-02-14T03:33:39.488Z,76.93
2023-02-14T03:36:13.389Z,77.38
2023-02-14T03:39:03.727Z,77.44
2023-02-14T03:41:38.700Z,77.70
2023-02-14T03:44:11.348Z,77.76
2023-02-14T03:46:45.664Z,77.39
2023-02-14T03:49:17.913Z,77.46
2023-02-14T03:51:48.301Z,76.72
2023-02-14T03:54:16.513Z,76.35
2023-02-14T03:56:50.207Z,76.05
2023-02-14T03:59:29.320Z,75.94
2023-02-14T04:02:22.112Z,75.50
2023-02-14T04:04:50.795Z,75.38
2023-02-14T04:07:20.423Z,75.28
2023-02-14T04:09:47.768Z,74.63
2023-02-14T04:12:16.918Z,74.57
2023-02-14T04:14:44.909Z,74.26
2023-02-14T04:17:30.476Z,74.61
2023-02-14T04:19:57.205Z,74.89
2023-02-14T04:22:24.039Z,74.35
2023-02-14T04:24:50.889Z,74.38
2023-02-14T04:27:17.650Z,74.58
2023-02-14T04:29:47.301Z,73.93
2023-02-14T04:32:17.355Z,74.09
2023-02-14T04:34:44.843Z,74.27
2023-02-14T04:37:12.239Z,74.47
2023-02-14T04:39:39.555Z,74.85
2023-02-14T04:42:06.838Z,73.95
2023-02-14T04:44:38.346Z,73.97
2023-02-14T04:47:06.326Z,74.15
2023-02-14T04:49:33.636Z,74.13
2023-02-14T04:52:00.788Z,74.24
2023-02-14T04:54:27.917Z,73.95
2023-02-14T04:56:54.777Z,74.35
2023-02-14T04:59:24.642Z,74.28
2023-02-14T05:01:52.694Z,73.94
2023-02-14T05:04:20.186Z,73.38
2023-02-14T05:06:46.950Z,73.60
2023-02-14T05:09:13.774Z,73.24
2023-02-14T05:11:40.501Z,73.52
2023-02-14T05:14:07.456Z,73.34
2023-02-14T05:16:34.397Z,72.89
2023-02-14T05:19:01.200Z,72.96
2023-02-14T05:21:28.663Z,72.44
2023-02-14T05:23:55.491Z,72.34
2023-02-14T05:26:22.478Z,72.03
2023-02-14T05:28:49.197Z,71.89
2023-02-14T05:31:16.225Z,71.92
2023-02-14T05:33:43.014Z,71.62
2023-02-14T05:36:10.344Z,71.65
2023-02-14T05:38:37.196Z,71.42
2023-02-14T05:41:04.079Z,71.23
2023-02-14T05:43:30.810Z,71.02
2023-02-14T05:45:58.438Z,70.82
2023-02-14T05:48:25.476Z,70.84
2023-02-14T05:50:52.268Z,70.41
2023-02-14T05:53:19.217Z,70.47
2023-02-14T05:55:46.627Z,70.49
2023-02-14T05:58:13.728Z,70.28
2023-02-14T06:00:41.510Z,70.49
2023-02-14T06:03:08.897Z,70.60
2023-02-14T06:05:36.166Z,70.49
2023-02-14T06:08:03.039Z,70.94
2023-02-14T06:10:29.824Z,71.13
2023-02-14T06:12:57.069Z,70.97
2023-02-14T06:15:23.918Z,70.90
2023-02-14T06:17:53.049Z,70.70
2023-02-14T06:20:20.482Z,70.43
2023-02-14T06:22:47.578Z,71.17
2023-02-14T06:25:14.460Z,70.74
2023-02-14T06:27:41.390Z,70.45
2023-02-14T06:30:09.758Z,70.20
2023-02-14T06:32:36.493Z,70.28
2023-02-14T06:35:04.217Z,70.50
2023-02-14T06:37:31.077Z,71.98
2023-02-14T06:39:58.075Z,73.74
2023-02-14T06:42:24.914Z,71.15
2023-02-14T06:44:51.757Z,71.69
2023-02-14T06:47:18.535Z,70.25
2023-02-14T06:49:45.346Z,70.38
2023-02-14T06:52:12.481Z,70.16
2023-02-14T06:54:40.174Z,70.80
2023-02-14T06:57:06.928Z,70.62
2023-02-14T06:59:33.693Z,68.05
2023-02-14T07:02:00.486Z,67.69
2023-02-14T07:04:27.227Z,67.46
2023-02-14T07:06:53.980Z,67.79
2023-02-14T07:09:20.855Z,67.45
2023-02-14T07:11:47.886Z,67.93
2023-02-14T07:14:14.968Z,67.38
2023-02-14T07:16:41.758Z,67.50
2023-02-14T07:19:08.509Z,66.88
2023-02-14T07:21:35.363Z,66.89
2023-02-14T07:24:02.128Z,66.89
2023-02-14T07:26:28.930Z,66.84
2023-02-14T07:28:55.789Z,67.59
2023-02-14T07:31:23.642Z,67.12
2023-02-14T07:33:51.720Z,67.88
2023-02-14T07:36:19.046Z,67.52
2023-02-14T07:38:45.813Z,67.96
2023-02-14T07:41:12.553Z,67.88
2023-02-14T07:43:39.864Z,67.37
2023-02-14T07:46:06.858Z,67.30
2023-02-14T07:48:34.559Z,67.07
2023-02-14T07:51:02.709Z,67.06
2023-02-14T07:53:29.754Z,66.86
2023-02-14T07:55:56.673Z,66.91
2023-02-14T07:58:23.453Z,67.24
2023-02-14T08:00:51.222Z,67.77
2023-02-14T08:03:18.423Z,67.89
2023-02-14T08:05:45.225Z,67.56
2023-02-14T08:08:12.113Z,66.95
2023-02-14T08:10:38.939Z,67.05
2023-02-14T08:13:05.687Z,67.23
2023-02-14T08:15:53.557Z,66.70
2023-02-14T08:18:23.171Z,67.04
2023-02-14T08:20:50.230Z,66.93
2023-02-14T08:23:18.418Z,66.93
2023-02-14T08:25:45.311Z,66.37
2023-02-14T08:28:13.837Z,66.25
2023-02-14T08:30:42.117Z,66.16
2023-02-14T08:33:09.299Z,65.90
2023-02-14T08:35:36.513Z,65.63
2023-02-14T08:38:04.435Z,66.06
2023-02-14T08:40:31.561Z,65.82
2023-02-14T08:42:58.271Z,65.85
2023-02-14T08:45:25.151Z,66.02
2023-02-14T08:47:51.877Z,65.92
2023-02-14T08:50:19.267Z,65.88
2023-02-14T08:52:46.074Z,65.87
2023-02-14T08:55:13.928Z,65.47
2023-02-14T08:57:40.919Z,65.17
2023-02-14T09:00:08.764Z,65.28
2023-02-14T09:02:36.207Z,64.76
2023-02-14T09:05:03.048Z,65.05
2023-02-14T09:07:30.762Z,64.86
2023-02-14T09:09:57.612Z,64.83
2023-02-14T09:12:24.554Z,64.59
2023-02-14T09:14:51.312Z,64.62
2023-02-14T09:17:18.352Z,64.12
2023-02-14T09:19:45.143Z,63.76
2023-02-14T09:22:12.076Z,63.46
2023-02-14T09:24:41.412Z,63.40
2023-02-14T09:27:08.703Z,63.57
2023-02-14T09:29:36.467Z,63.35
2023-02-14T09:32:03.734Z,63.12
2023-02-14T09:34:32.993Z,62.65
2023-02-14T09:36:59.670Z,62.47
2023-02-14T09:39:26.421Z,62.55
2023-02-14T09:42:15.368Z,62.71
2023-02-14T09:45:11.756Z,62.28
2023-02-14T09:47:44.587Z,62.00
2023-02-14T09:50:20.561Z,61.88
2023-02-14T09:52:51.306Z,62.14
2023-02-14T09:55:18.854Z,62.13
2023-02-14T09:58:01.673Z,62.28
2023-02-14T10:00:46.327Z,62.11
2023-02-14T10:03:35.664Z,61.69
2023-02-14T10:06:20.971Z,62.03
2023-02-14T10:09:07.809Z,62.35
2023-02-14T10:11:35.607Z,62.32
2023-02-14T10:14:12.087Z,61.92
2023-02-14T10:17:19.426Z,62.00
2023-02-14T10:20:01.361Z,61.96
2023-02-14T10:22:43.569Z,61.71
2023-02-14T10:25:23.939Z,61.38
2023-02-14T10:27:53.332Z,61.36
2023-02-14T10:30:22.893Z,61.13
2023-02-14T10:33:16.829Z,60.69
2023-02-14T10:35:52.581Z,60.51
2023-02-14T10:38:44.958Z,60.41
2023-02-14T10:41:24.697Z,60.08
2023-02-14T10:44:04.456Z,59.80
2023-02-14T10:46:55.536Z,59.96
2023-02-14T10:50:00.465Z,59.32
2023-02-14T10:52:34.399Z,58.96
2023-02-14T10:55:13.921Z,58.91
2023-02-14T10:57:51.107Z,58.50
2023-02-14T11:00:26.514Z,58.59
2023-02-14T11:02:58.098Z,58.66
2023-02-14T11:05:27.107Z,58.15
2023-02-14T11:07:53.867Z,57.98
2023-02-14T11:10:25.318Z,57.86
2023-02-14T11:12:52.186Z,57.61
2023-02-14T11:15:21.776Z,57.36
2023-02-14T11:17:49.270Z,56.95
2023-02-14T11:20:20.010Z,58.19
2023-02-14T11:22:46.925Z,58.83
2023-02-14T11:25:21.468Z,60.58
2023-02-14T11:27:51.101Z,60.01
2023-02-14T11:30:28.178Z,60.04
2023-02-14T11:32:56.365Z,60.31
2023-02-14T11:35:28.604Z,59.53
2023-02-14T11:38:02.137Z,58.78
2023-02-14T11:40:38.131Z,58.59
2023-02-14T11:43:14.434Z,58.42
2023-02-14T11:45:50.096Z,58.11
2023-02-14T11:48:37.068Z,58.08
2023-02-14T11:51:14.720Z,58.14
2023-02-14T11:53:56.920Z,57.53
2023-02-14T11:56:24.187Z,57.69
2023-02-14T11:58:56.682Z,58.08
2023-02-14T12:01:29.840Z,57.83
2023-02-14T12:04:01.664Z,57.87
2023-02-14T12:06:36.488Z,57.81
2023-02-14T12:09:29.448Z,58.05
2023-02-14T12:11:59.232Z,57.69
2023-02-14T12:14:32.473Z,57.73
2023-02-14T12:17:11.330Z,57.76
2023-02-14T12:19:56.121Z,57.80
2023-02-14T12:22:29.562Z,58.05
2023-02-14T12:25:10.829Z,58.16
2023-02-14T12:27:37.833Z,58.21
2023-02-14T12:30:35.182Z,58.91
2023-02-14T12:33:02.293Z,58.62
2023-02-14T12:35:52.293Z,58.73
2023-02-14T12:38:33.574Z,58.79
2023-02-14T12:41:06.211Z,58.84
2023-02-14T12:43:51.471Z,58.92
2023-02-14T12:46:22.985Z,58.94
2023-02-14T12:49:22.453Z,58.66
2023-02-14T12:52:15.207Z,58.85
2023-02-14T12:54:53.939Z,59.05
2023-02-14T12:57:36.987Z,59.06
2023-02-14T13:00:15.135Z,59.12
2023-02-14T13:03:30.429Z,59.13
2023-02-14T13:06:23.772Z,59.34
2023-02-14T13:09:16.181Z,59.63
2023-02-14T13:11:57.923Z,59.40
2023-02-14T13:14:31.073Z,59.38
2023-02-14T13:17:07.948Z,59.22
2023-02-14T13:19:43.635Z,59.02
2023-02-14T13:22:27.393Z,59.48
2023-02-14T13:24:59.023Z,59.54
2023-02-14T13:27:33.403Z,59.58
2023-02-14T13:30:04.990Z,59.49
2023-02-14T13:32:39.251Z,59.45
2023-02-14T13:35:08.007Z,59.18
2023-02-14T13:37:36.107Z,58.99
2023-02-14T13:40:16.447Z,59.11
2023-02-14T13:42:49.923Z,59.11
2023-02-14T13:45:32.701Z,59.17
2023-02-14T13:48:04.868Z,58.86
2023-02-14T13:50:36.008Z,58.38
2023-02-14T13:53:02.858Z,58.16
2023-02-14T13:55:36.144Z,58.13
2023-02-14T13:58:19.421Z,58.05
2023-02-14T14:00:48.147Z,58.28
2023-02-14T14:03:37.783Z,57.94
2023-02-14T14:06:10.793Z,58.26
2023-02-14T14:08:46.227Z,57.71
2023-02-14T14:11:12.942Z,57.51
2023-02-14T14:13:42.447Z,57.19
2023-02-14T14:16:38.976Z,57.31
2023-02-14T14:19:17.578Z,57.68
2023-02-14T14:22:00.879Z,57.59
2023-02-14T14:24:32.841Z,57.34
2023-02-14T14:27:14.590Z,57.09
2023-02-14T14:29:45.760Z,57.20
2023-02-14T14:32:36.243Z,57.49
2023-02-14T14:35:15.980Z,57.40
2023-02-14T14:38:01.472Z,57.47
2023-02-14T14:40:34.229Z,57.55
2023-02-14T14:43:07.182Z,57.55
2023-02-14T14:45:34.551Z,57.65
2023-02-14T14:48:10.290Z,57.99
2023-02-14T14:50:37.218Z,57.95
2023-02-14T14:53:09.463Z,58.06
2023-02-14T14:55:38.290Z,58.10
2023-02-14T14:58:11.022Z,58.38
2023-02-14T15:00:42.592Z,58.35
2023-02-14T15:03:12.448Z,58.56
2023-02-14T15:05:42.302Z,58.29
2023-02-14T15:08:36.663Z,58.40
2023-02-14T15:11:13.296Z,58.45
2023-02-14T15:13:53.729Z,58.84
2023-02-14T15:16:25.080Z,59.01
2023-02-14T15:18:57.363Z,58.71
2023-02-14T15:21:24.696Z,58.75
2023-02-14T15:23:53.988Z,58.81
2023-02-14T15:26:42.748Z,58.52
2023-02-14T15:29:33.584Z,57.47
2023-02-14T15:32:03.316Z,57.00
2023-02-14T15:34:36.091Z,56.86
2023-02-14T15:37:06.690Z,56.78
2023-02-14T15:39:58.032Z,56.75
2023-02-14T15:42:26.832Z,56.69
2023-02-14T15:45:22.644Z,56.75
2023-02-14T15:47:52.347Z,56.77
2023-02-14T15:50:26.159Z,56.82
2023-02-14T15:52:56.330Z,56.60
2023-02-14T15:55:26.509Z,56.70
2023-02-14T15:58:00.754Z,56.77
2023-02-14T16:00:27.784Z,56.71
2023-02-14T16:02:58.132Z,56.72
2023-02-14T16:05:27.372Z,56.50
2023-02-14T16:07:59.906Z,56.41
2023-02-14T16:10:30.411Z,56.44
2023-02-14T16:13:06.610Z,56.82
2023-02-14T16:15:38.554Z,56.61
2023-02-14T16:18:19.135Z,56.71
2023-02-14T16:20:48.859Z,56.85
2023-02-14T16:23:23.437Z,57.18
2023-02-14T16:25:50.987Z,56.96
2023-02-14T16:28:18.107Z,57.04
2023-02-14T16:30:47.388Z,56.95
2023-02-14T16:33:27.356Z,57.56
2023-02-14T16:35:56.283Z,57.34
2023-02-14T16:38:23.224Z,57.53
2023-02-14T16:40:52.668Z,57.67
2023-02-14T16:43:20.952Z,57.52
2023-02-14T16:45:48.341Z,57.66
2023-02-14T16:48:18.560Z,57.81
2023-02-14T16:50:46.360Z,57.83
2023-02-14T16:53:28.905Z,57.86
2023-02-14T16:55:57.535Z,57.95
2023-02-14T16:58:32.029Z,57.98
2023-02-14T17:00:59.236Z,58.21
2023-02-14T17:03:26.253Z,58.38
2023-02-14T17:05:54.568Z,58.49
2023-02-14T17:08:21.816Z,58.52
2023-02-14T17:10:49.082Z,58.44
2023-02-14T17:13:19.278Z,58.63
2023-02-14T17:15:46.395Z,58.68
2023-02-14T17:18:17.934Z,58.73
2023-02-14T17:20:44.829Z,58.82
2023-02-14T17:23:11.552Z,58.94
2023-02-14T17:25:38.799Z,59.02
2023-02-14T17:28:05.609Z,59.16
2023-02-14T17:30:32.574Z,59.15
2023-02-14T17:32:59.886Z,59.23
2023-02-14T17:35:26.745Z,59.62
2023-02-14T17:37:53.442Z,59.57
2023-02-14T17:40:20.482Z,59.60
2023-02-14T17:42:47.149Z,59.57
2023-02-14T17:45:13.963Z,59.77
2023-02-14T17:47:43.187Z,59.79
2023-02-14T17:50:10.672Z,59.55
2023-02-14T17:52:37.929Z,59.73
2023-02-14T17:55:05.870Z,59.71
2023-02-14T17:57:32.920Z,59.58
2023-02-14T17:59:59.758Z,59.60
2023-02-14T18:02:26.872Z,59.86
2023-02-14T18:04:53.744Z,59.94
2023-02-14T18:07:20.966Z,59.88
2023-02-14T18:09:47.716Z,60.03
2023-02-14T18:12:15.157Z,60.15
2023-02-14T18:14:42.223Z,60.06
2023-02-14T18:17:09.050Z,60.23
2023-02-14T18:19:35.830Z,60.30
2023-02-14T18:22:02.755Z,60.40
2023-02-14T18:24:29.626Z,60.49
2023-02-14T18:26:56.566Z,60.48
2023-02-14T18:29:23.456Z,60.83
2023-02-14T18:31:50.251Z,60.90
2023-02-14T18:34:17.039Z,60.86
2023-02-14T18:36:43.808Z,60.90
2023-02-14T18:39:10.824Z,61.09
2023-02-14T18:41:37.769Z,61.00
2023-02-14T18:44:05.054Z,61.04
2023-02-14T18:46:35.515Z,60.88
2023-02-14T18:49:04.451Z,61.12
2023-02-14T18:51:34.018Z,61.10
2023-02-14T18:54:02.248Z,61.07
2023-02-14T18:56:31.708Z,61.19
2023-02-14T18:59:05.064Z,61.16
2023-02-14T19:01:36.834Z,61.26
2023-02-14T19:04:06.421Z,61.30
2023-02-14T19:06:34.248Z,61.61
2023-02-14T19:09:02.478Z,61.32
2023-02-14T19:11:31.781Z,61.43
2023-02-14T19:14:00.370Z,61.32
2023-02-14T19:16:33.317Z,61.39
2023-02-14T19:19:02.682Z,61.46
2023-02-14T19:21:33.709Z,61.40
2023-02-14T19:24:02.466Z,61.51
2023-02-14T19:26:37.120Z,61.61
2023-02-14T19:29:10.738Z,61.63
2023-02-14T19:31:41.208Z,61.95
2023-02-14T19:34:13.724Z,61.70
2023-02-14T19:36:40.563Z,61.80
2023-02-14T19:39:07.695Z,62.01
2023-02-14T19:41:35.712Z,62.18
2023-02-14T19:44:04.836Z,62.03
2023-02-14T19:46:32.742Z,62.28
2023-02-14T19:49:00.620Z,62.90
2023-02-14T19:51:33.167Z,62.74
2023-02-14T19:54:01.656Z,63.11
2023-02-14T19:56:31.324Z,63.42
2023-02-14T19:58:59.131Z,63.28
2023-02-14T20:01:30.938Z,63.56
2023-02-14T20:03:57.829Z,63.64
2023-02-14T20:06:26.018Z,63.80
2023-02-14T20:08:53.179Z,63.54
2023-02-14T20:11:33.745Z,63.82
2023-02-14T20:14:01.117Z,63.77
2023-02-14T20:16:29.424Z,63.88
2023-02-14T20:18:57.006Z,63.96
2023-02-14T20:21:28.151Z,64.10
2023-02-14T20:23:58.542Z,64.07
2023-02-14T20:26:25.302Z,64.17
2023-02-14T20:28:53.208Z,64.08
2023-02-14T20:31:20.404Z,64.39
2023-02-14T20:33:51.568Z,64.22
2023-02-14T20:36:19.450Z,64.33
2023-02-14T20:38:46.669Z,64.59
2023-02-14T20:41:16.594Z,64.64
2023-02-14T20:43:43.506Z,64.68
2023-02-14T20:46:10.300Z,64.91
2023-02-14T20:48:37.189Z,64.98
2023-02-14T20:51:15.691Z,64.99
2023-02-14T20:53:43.830Z,64.93
2023-02-14T20:56:10.869Z,64.80
2023-02-14T20:58:39.003Z,64.89
2023-02-14T21:01:09.818Z,65.40
2023-02-14T21:03:37.459Z,65.24
2023-02-14T21:06:06.765Z,65.85
2023-02-14T21:08:34.408Z,66.15
2023-02-14T21:11:01.825Z,65.67
2023-02-14T21:13:28.743Z,65.58
2023-02-14T21:15:55.569Z,65.28
2023-02-14T21:18:22.462Z,65.37
2023-02-14T21:20:50.889Z,65.77
2023-02-14T21:23:17.606Z,66.11
2023-02-14T21:25:44.343Z,66.30
2023-02-14T21:28:11.291Z,66.04
2023-02-14T21:30:37.998Z,66.31
2023-02-14T21:33:04.666Z,65.92
2023-02-14T21:35:31.459Z,66.26
2023-02-14T21:37:59.831Z,65.88
2023-02-14T21:40:26.597Z,66.28
2023-02-14T21:42:53.338Z,66.26
2023-02-14T21:45:38.765Z,66.48
2023-02-14T21:48:23.988Z,66.16
2023-02-14T21:50:50.746Z,66.81
2023-02-14T21:53:17.623Z,67.40
2023-02-14T21:55:46.084Z,67.19
2023-02-14T21:58:13.236Z,67.17
2023-02-14T22:00:40.062Z,67.42
2023-02-14T22:03:06.855Z,67.80
2023-02-14T22:05:33.644Z,68.43
2023-02-14T22:08:00.386Z,67.84
2023-02-14T22:10:27.259Z,68.44
2023-02-14T22:12:55.497Z,68.41
2023-02-14T22:15:22.257Z,68.18
2023-02-14T22:17:49.060Z,68.33
2023-02-14T22:20:16.663Z,68.42
2023-02-14T22:22:43.445Z,68.75
2023-02-14T22:25:10.226Z,69.16
2023-02-14T22:27:40.477Z,68.82
2023-02-14T22:30:07.986Z,69.06
2023-02-14T22:32:34.763Z,69.44
2023-02-14T22:35:01.536Z,69.33
2023-02-14T22:37:28.297Z,69.09
2023-02-14T22:39:55.041Z,68.73
2023-02-14T22:42:21.976Z,68.96
2023-02-14T22:44:48.802Z,69.05
2023-02-14T22:47:15.590Z,69.17
2023-02-14T22:49:42.362Z,69.31
2023-02-14T22:52:09.145Z,69.49
2023-02-14T22:54:36.011Z,69.56
2023-02-14T22:57:02.825Z,69.74
2023-02-14T22:59:32.144Z,69.35
2023-02-14T23:01:59.754Z,69.38
2023-02-14T23:04:29.407Z,69.36
2023-02-14T23:06:56.235Z,69.42
2023-02-14T23:09:24.278Z,70.06
2023-02-14T23:11:52.033Z,69.91
2023-02-14T23:14:37.983Z,69.56
2023-02-14T23:17:14.517Z,69.20
2023-02-14T23:20:01.049Z,68.97
2023-02-14T23:22:39.528Z,69.34
2023-02-14T23:25:09.278Z,69.25
2023-02-14T23:27:42.963Z,69.49
2023-02-14T23:30:13.029Z,69.47
2023-02-14T23:32:39.902Z,69.68
2023-02-14T23:35:06.987Z,69.50
2023-02-14T23:37:33.930Z,69.75
2023-02-14T23:40:00.680Z,70.08
2023-02-14T23:42:28.241Z,70.12
2023-02-14T23:45:14.981Z,69.82
2023-02-14T23:47:41.714Z,70.02
2023-02-14T23:50:08.933Z,70.19
2023-02-14T23:52:38.298Z,70.01
2023-02-14T23:55:05.698Z,69.95
2023-02-14T23:57:32.452Z,70.14
